Time;durP1;ratioP1;P1;durP2;ratioP2;P2;SDS_P1;SDS_P2;PMS_P1;PMS_P2;Temp;Humidity;BMP_temperature;BMP_pressure;BME280_temperature;BME280_humidity;BME280_pressure;Samples;Min_cycle;Max_cycle;Signal;HPM_P1;HPM_P2
2022/01/23 00:02:23;;;;;;;2.90;1.40;;;-0.10;80.50;;;;;;5001144;28;20133;-70
2022/01/23 00:04:48;;;;;;;4.75;1.75;;;-0.10;79.70;;;;;;5000660;28;20033;-70
2022/01/23 00:07:15;;;;;;;2.22;1.15;;;0.00;79.50;;;;;;5000556;28;20400;-69
2022/01/23 00:09:42;;;;;;;2.67;1.27;;;0.00;79.50;;;;;;5002547;28;20030;-69
2022/01/23 00:12:14;;;;;;;2.38;1.30;;;0.00;79.40;;;;;;5000009;28;20389;-69
2022/01/23 00:17:25;;;;;;;2.45;1.17;;;0.30;78.60;;;;;;4997451;28;20580;-70
2022/01/23 00:19:57;;;;;;;4.03;1.70;;;0.30;79.20;;;;;;4998532;28;20061;-70
2022/01/23 00:22:33;;;;;;;2.60;1.17;;;0.40;78.20;;;;;;4995888;28;20033;-70
2022/01/23 00:30:32;;;;;;;3.50;1.45;;;0.70;77.00;;;;;;4998999;28;20041;-69
2022/01/23 00:33:03;;;;;;;4.10;2.20;;;0.80;76.80;;;;;;4993042;28;20041;-69
2022/01/23 00:35:30;;;;;;;2.47;2.20;;;0.80;76.20;;;;;;4994489;28;20033;-68
2022/01/23 00:37:56;;;;;;;3.90;1.58;;;0.70;76.00;;;;;;4997530;28;20058;-68
2022/01/23 00:40:23;;;;;;;5.10;4.55;;;0.60;76.30;;;;;;5001042;28;20112;-68
2022/01/23 00:42:49;;;;;;;3.00;2.67;;;0.70;76.50;;;;;;4998591;28;20034;-69
2022/01/23 00:45:35;;;;;;;3.67;1.20;;;0.60;76.00;;;;;;5002875;28;20049;-68
2022/01/23 00:48:06;;;;;;;3.45;1.27;;;0.50;76.30;;;;;;5004620;28;22470;-69
2022/01/23 00:50:36;;;;;;;3.92;1.98;;;0.40;77.50;;;;;;5002986;28;20105;-67
2022/01/23 00:53:04;;;;;;;3.47;1.55;;;0.40;77.10;;;;;;5001031;28;20050;-69
2022/01/23 00:55:30;;;;;;;2.70;1.05;;;0.40;76.80;;;;;;5000898;28;20037;-70
2022/01/23 00:57:56;;;;;;;2.15;1.08;;;0.40;76.90;;;;;;5004183;28;20570;-70
2022/01/23 01:00:23;;;;;;;1.15;0.95;;;0.30;76.80;;;;;;5005563;28;20061;-70
2022/01/23 01:02:49;;;;;;;2.03;0.93;;;0.30;77.40;;;;;;5004780;28;20034;-70
2022/01/23 01:05:14;;;;;;;4.15;1.33;;;0.10;77.40;;;;;;5003162;28;20407;-70
2022/01/23 01:07:40;;;;;;;3.03;1.10;;;0.00;78.30;;;;;;5002133;28;20022;-69
2022/01/23 01:10:12;;;;;;;1.98;1.13;;;-0.10;78.20;;;;;;5002892;28;20044;-70
2022/01/23 01:12:43;;;;;;;3.10;1.25;;;-0.10;78.60;;;;;;5004678;28;20034;-69
2022/01/23 01:30:14;;;;;;;3.47;1.63;;;0.00;78.80;;;;;;5004378;28;20408;-69
2022/01/23 01:34:21;;;;;;;3.00;1.20;;;-0.40;81.10;;;;;;5002325;28;20025;-69
2022/01/23 01:36:47;;;;;;;3.25;1.45;;;-0.40;80.90;;;;;;4999482;28;20523;-71
2022/01/23 01:39:19;;;;;;;4.20;1.38;;;-0.30;80.90;;;;;;5019459;28;20692;-71
2022/01/23 01:41:45;;;;;;;4.00;1.60;;;-0.20;80.50;;;;;;5004831;28;20092;-70
2022/01/23 01:44:12;;;;;;;3.88;1.20;;;-0.10;80.30;;;;;;5005075;28;20072;-71
2022/01/23 01:46:38;;;;;;;2.15;1.20;;;0.00;79.80;;;;;;5001221;28;20018;-71
2022/01/23 01:49:04;;;;;;;2.80;1.42;;;0.10;79.40;;;;;;5002613;28;20076;-70
2022/01/23 01:51:32;;;;;;;4.60;1.63;;;0.20;80.00;;;;;;5003278;28;20468;-70
2022/01/23 01:54:13;;;;;;;4.00;1.48;;;0.20;78.40;;;;;;4999662;28;20038;-69
2022/01/23 01:56:48;;;;;;;1.92;1.35;;;0.30;78.30;;;;;;5001809;28;20409;-69
2022/01/23 01:59:44;;;;;;;3.55;1.55;;;0.30;78.50;;;;;;4999554;28;20038;-69
2022/01/23 02:10:05;;;;;;;4.53;1.60;;;0.50;76.70;;;;;;5003799;28;20048;-71
2022/01/23 02:15:45;;;;;;;3.72;1.45;;;0.70;75.90;;;;;;5004733;28;20762;-70
2022/01/23 02:18:33;;;;;;;3.55;1.08;;;0.70;75.10;;;;;;5002215;28;20038;-71
2022/01/23 02:51:47;;;;;;;6.75;3.40;;;-0.30;79.70;;;;;;5000575;28;20551;-69
2022/01/23 02:56:55;;;;;;;4.63;1.50;;;-0.10;80.10;;;;;;5002462;28;20045;-69
2022/01/23 03:02:01;;;;;;;2.83;1.50;;;0.00;78.70;;;;;;5000035;28;20030;-69
2022/01/23 03:04:27;;;;;;;2.90;1.17;;;-0.20;78.90;;;;;;5003127;28;20046;-69
2022/01/23 03:12:04;;;;;;;2.50;1.20;;;-0.90;82.80;;;;;;5002511;28;20034;-69
2022/01/23 03:14:44;;;;;;;5.78;2.80;;;-0.80;82.70;;;;;;5001252;28;20041;-69
2022/01/23 03:28:26;;;;;;;6.47;3.13;;;0.00;81.90;;;;;;5001374;28;20072;-69
2022/01/23 03:31:05;;;;;;;5.20;3.22;;;0.10;80.90;;;;;;5001916;28;20030;-69
2022/01/23 03:33:32;;;;;;;3.88;1.98;;;-0.30;81.10;;;;;;5001316;28;20116;-69
2022/01/23 03:35:58;;;;;;;2.60;1.52;;;-0.30;81.80;;;;;;5001777;28;20088;-69
2022/01/23 03:38:24;;;;;;;2.80;1.60;;;-0.30;81.40;;;;;;5002387;28;20029;-69
2022/01/23 03:40:52;;;;;;;2.53;1.60;;;-0.40;80.70;;;;;;4999473;28;20030;-69
2022/01/23 03:43:26;;;;;;;4.18;2.05;;;-0.40;81.70;;;;;;5000407;28;20038;-69
2022/01/23 03:50:52;;;;;;;3.05;1.27;;;-0.40;81.70;;;;;;5000987;28;20092;-69
2022/01/23 03:53:18;;;;;;;2.55;1.17;;;-0.40;80.60;;;;;;5001229;28;20088;-69
2022/01/23 03:55:45;;;;;;;3.13;1.50;;;-0.40;80.20;;;;;;5000535;28;20026;-69
2022/01/23 03:58:11;;;;;;;3.00;1.38;;;-0.30;81.20;;;;;;4996351;28;20107;-69
2022/01/23 04:00:36;;;;;;;3.40;1.20;;;-0.20;81.40;;;;;;5000890;28;20782;-69
2022/01/23 04:03:02;;;;;;;3.63;1.35;;;-0.20;80.70;;;;;;5000263;28;20096;-69
2022/01/23 04:05:28;;;;;;;2.80;1.38;;;-0.10;80.30;;;;;;5001293;28;20161;-69
2022/01/23 04:07:54;;;;;;;5.03;1.55;;;-0.10;80.30;;;;;;5000587;28;20586;-69
2022/01/23 04:10:21;;;;;;;4.45;1.70;;;0.10;79.90;;;;;;5000519;28;20072;-69
2022/01/23 04:13:51;;;;;;;3.95;1.80;;;0.20;79.50;;;;;;5000405;28;20033;-69
2022/01/23 04:32:43;;;;;;;5.93;2.05;;;0.40;77.70;;;;;;5001165;28;20507;-69
2022/01/23 04:34:34;;;;;;;2.45;1.42;;;0.40;78.50;;;;;;4990793;28;20077;-69
2022/01/23 04:45:24;;;;;;;2.53;1.40;;;0.50;76.50;;;;;;5001561;28;20041;-70
2022/01/23 05:02:42;;;;;;;4.82;1.52;;;0.80;75.20;;;;;;5000656;28;20107;-69
2022/01/23 05:04:36;;;;;;;4.85;1.67;;;0.80;74.60;;;;;;5000205;28;20050;-69
2022/01/23 05:07:11;;;;;;;2.35;1.13;;;0.80;74.20;;;;;;5001657;28;20022;-69
2022/01/23 05:09:37;;;;;;;3.22;1.85;;;0.80;73.80;;;;;;5000855;28;20026;-69
2022/01/23 05:12:13;;;;;;;3.38;1.75;;;0.80;73.90;;;;;;5001909;28;20046;-69
2022/01/23 05:14:42;;;;;;;3.58;1.92;;;0.80;74.20;;;;;;5000205;28;20069;-69
2022/01/23 05:17:11;;;;;;;3.75;1.80;;;0.80;74.00;;;;;;4999501;28;20117;-69
2022/01/23 05:19:38;;;;;;;4.50;1.70;;;0.80;74.40;;;;;;5000405;28;20042;-69
2022/01/23 05:24:50;;;;;;;4.00;2.00;;;0.80;74.50;;;;;;5001661;28;20052;-69
2022/01/23 05:27:16;;;;;;;2.67;1.30;;;0.70;75.20;;;;;;5002584;28;20034;-69
2022/01/23 05:29:42;;;;;;;3.45;1.20;;;0.70;74.90;;;;;;4997723;28;20037;-69
2022/01/23 05:32:11;;;;;;;3.20;1.88;;;0.50;74.70;;;;;;5001982;28;20034;-69
2022/01/23 05:34:37;;;;;;;2.65;1.50;;;0.50;74.50;;;;;;5006493;28;20163;-69
2022/01/23 05:37:03;;;;;;;2.95;1.20;;;0.40;74.70;;;;;;5006456;28;20108;-70
2022/01/23 05:39:32;;;;;;;2.55;1.17;;;0.30;75.10;;;;;;5004433;28;21179;-69
2022/01/23 05:42:05;;;;;;;3.35;1.38;;;0.40;75.60;;;;;;5006289;28;20038;-69
2022/01/23 05:44:31;;;;;;;3.70;1.35;;;0.30;75.50;;;;;;5005160;28;20038;-69
2022/01/23 05:46:56;;;;;;;6.63;1.58;;;0.20;77.00;;;;;;5002870;28;20041;-69
2022/01/23 05:49:22;;;;;;;1.90;1.45;;;0.10;76.30;;;;;;5003141;28;20492;-69
2022/01/23 05:51:48;;;;;;;2.95;1.27;;;0.00;76.00;;;;;;5002308;28;20060;-69
2022/01/23 05:54:14;;;;;;;3.58;1.75;;;0.00;76.30;;;;;;5006591;28;20121;-69
2022/01/23 05:56:39;;;;;;;2.50;1.25;;;0.00;75.60;;;;;;5005651;28;20033;-68
2022/01/23 05:59:05;;;;;;;2.95;1.52;;;0.00;76.50;;;;;;5003775;28;20736;-70
2022/01/23 06:01:31;;;;;;;1.25;1.10;;;0.00;76.40;;;;;;5003887;28;20086;-69
2022/01/23 06:03:56;;;;;;;4.07;1.73;;;-0.10;76.50;;;;;;5006558;28;20037;-69
2022/01/23 06:06:22;;;;;;;3.13;2.03;;;-0.10;77.10;;;;;;5003919;28;20056;-69
2022/01/23 06:08:48;;;;;;;3.95;1.77;;;-0.10;76.70;;;;;;5002152;28;20076;-69
2022/01/23 06:11:14;;;;;;;3.83;1.42;;;-0.20;76.70;;;;;;5002004;28;20763;-69
2022/01/23 06:13:39;;;;;;;4.53;1.70;;;-0.20;76.30;;;;;;5005496;28;20483;-69
2022/01/23 06:16:05;;;;;;;4.07;1.67;;;-0.20;76.50;;;;;;5006040;28;20045;-69
2022/01/23 06:18:35;;;;;;;3.95;1.52;;;-0.20;76.80;;;;;;4999099;28;20038;-70
2022/01/23 06:21:01;;;;;;;3.47;3.17;;;-0.20;75.90;;;;;;5004797;28;20021;-69
2022/01/23 06:23:30;;;;;;;2.03;1.33;;;-0.30;76.40;;;;;;5004426;28;20045;-69
2022/01/23 06:25:56;;;;;;;3.83;1.40;;;-0.30;76.40;;;;;;5004081;28;20044;-69
2022/01/23 06:28:54;;;;;;;3.08;1.17;;;-0.20;76.70;;;;;;5002323;28;20029;-69
2022/01/23 06:31:20;;;;;;;5.70;1.55;;;-0.30;75.80;;;;;;5003650;28;20042;-69
2022/01/23 06:33:46;;;;;;;2.33;1.20;;;-0.30;76.50;;;;;;5003341;28;20113;-69
2022/01/23 06:36:11;;;;;;;3.65;1.85;;;-0.30;76.80;;;;;;5003428;28;20041;-70
2022/01/23 06:38:37;;;;;;;2.90;1.50;;;-0.30;77.00;;;;;;5001678;28;20103;-70
2022/01/23 06:41:03;;;;;;;4.00;1.30;;;-0.30;77.00;;;;;;5004101;28;20028;-70
2022/01/23 06:43:28;;;;;;;4.20;1.98;;;-0.30;76.10;;;;;;5004813;28;20098;-70
2022/01/23 06:45:54;;;;;;;6.45;3.63;;;-0.30;75.90;;;;;;5003361;28;20084;-70
2022/01/23 06:48:20;;;;;;;23.77;15.18;;;-0.30;75.20;;;;;;5002768;28;20158;-70
2022/01/23 06:50:45;;;;;;;6.18;4.88;;;-0.30;75.70;;;;;;5002936;28;20034;-69
2022/01/23 06:53:11;;;;;;;4.85;2.55;;;-0.30;76.20;;;;;;5000042;28;20061;-69
2022/01/23 06:55:37;;;;;;;6.88;3.22;;;-0.30;76.30;;;;;;5006019;28;20037;-69
2022/01/23 06:58:02;;;;;;;3.90;2.05;;;-0.20;75.70;;;;;;5002663;28;20029;-70
2022/01/23 07:00:28;;;;;;;6.53;1.85;;;-0.20;76.70;;;;;;5004190;28;20060;-69
2022/01/23 07:02:54;;;;;;;1.67;0.98;;;-0.10;77.20;;;;;;5003155;28;20116;-70
2022/01/23 07:05:19;;;;;;;6.55;5.22;;;-0.20;76.60;;;;;;5003078;28;20034;-70
2022/01/23 07:07:45;;;;;;;3.53;2.05;;;-0.20;76.30;;;;;;5001491;28;20034;-69
2022/01/23 07:10:10;;;;;;;3.92;2.35;;;-0.10;77.40;;;;;;5000406;28;20049;-69
2022/01/23 07:12:36;;;;;;;4.35;2.00;;;0.00;77.40;;;;;;5001600;28;21128;-71
2022/01/23 07:15:02;;;;;;;3.00;1.23;;;0.10;76.70;;;;;;5003141;28;20654;-69
2022/01/23 07:17:28;;;;;;;4.40;1.27;;;0.10;76.10;;;;;;4999206;28;20101;-70
2022/01/23 07:19:53;;;;;;;4.30;1.63;;;0.20;75.20;;;;;;5002080;28;20072;-68
2022/01/23 07:22:19;;;;;;;5.38;3.30;;;0.30;75.10;;;;;;5002811;28;20041;-69
2022/01/23 07:24:44;;;;;;;5.05;2.00;;;0.40;74.00;;;;;;5001921;28;20077;-69
2022/01/23 07:27:15;;;;;;;2.17;1.60;;;0.40;73.40;;;;;;5001403;28;20502;-70
2022/01/23 07:29:42;;;;;;;5.10;3.57;;;0.50;75.00;;;;;;5003713;28;20045;-70
2022/01/23 07:32:09;;;;;;;4.75;2.08;;;0.50;74.10;;;;;;5001075;28;20112;-70
2022/01/23 07:34:35;;;;;;;3.92;1.52;;;0.50;73.10;;;;;;5002293;28;20026;-69
2022/01/23 07:37:01;;;;;;;4.30;2.10;;;0.60;73.70;;;;;;5001999;28;20034;-68
2022/01/23 07:39:26;;;;;;;3.22;1.95;;;0.60;72.50;;;;;;5002012;28;20026;-68
2022/01/23 07:41:53;;;;;;;5.40;2.00;;;0.60;74.40;;;;;;5002002;28;20040;-69
2022/01/23 07:44:18;;;;;;;6.20;1.33;;;0.60;73.80;;;;;;4998790;28;20038;-69
2022/01/23 07:46:44;;;;;;;2.13;1.33;;;0.60;73.60;;;;;;5004295;28;20034;-70
2022/01/23 07:49:10;;;;;;;3.03;1.85;;;0.70;72.60;;;;;;5000039;28;20038;-71
2022/01/23 07:51:35;;;;;;;3.60;1.48;;;0.70;72.60;;;;;;5004068;28;20033;-70
2022/01/23 07:54:01;;;;;;;4.20;2.22;;;0.70;71.30;;;;;;5002488;28;20054;-69
2022/01/23 07:56:27;;;;;;;5.20;1.85;;;0.80;72.30;;;;;;5000741;28;20044;-69
2022/01/23 07:58:53;;;;;;;4.18;1.50;;;0.90;72.00;;;;;;4999656;28;20033;-70
2022/01/23 08:01:18;;;;;;;3.72;1.35;;;0.90;71.70;;;;;;5002570;28;20030;-69
2022/01/23 08:03:44;;;;;;;4.35;2.33;;;0.90;71.70;;;;;;5000970;28;20073;-69
2022/01/23 08:06:12;;;;;;;2.83;1.67;;;0.90;71.10;;;;;;5001812;28;20042;-69
2022/01/23 08:08:38;;;;;;;4.38;2.25;;;0.90;72.80;;;;;;5002166;28;20112;-70
2022/01/23 08:11:05;;;;;;;3.70;2.63;;;0.90;71.60;;;;;;5003267;28;20030;-68
2022/01/23 08:13:30;;;;;;;4.78;2.00;;;1.00;72.20;;;;;;4998640;28;20041;-71
2022/01/23 08:15:56;;;;;;;5.40;2.00;;;1.00;72.00;;;;;;5002995;28;20034;-71
2022/01/23 08:18:22;;;;;;;6.80;3.88;;;1.10;70.80;;;;;;5001258;28;20029;-70
2022/01/23 08:20:48;;;;;;;3.17;1.60;;;1.00;71.80;;;;;;4998560;28;20037;-70
2022/01/23 08:23:13;;;;;;;4.32;2.28;;;1.20;72.00;;;;;;5001395;28;20120;-72
2022/01/23 08:25:40;;;;;;;5.10;2.97;;;1.20;71.20;;;;;;5002179;28;20042;-69
2022/01/23 08:28:09;;;;;;;3.90;2.38;;;1.30;70.90;;;;;;5000192;28;20022;-69
2022/01/23 08:30:35;;;;;;;5.78;2.78;;;1.30;69.30;;;;;;5000588;28;20677;-70
2022/01/23 08:33:01;;;;;;;3.72;1.83;;;1.30;70.50;;;;;;4999930;28;20034;-71
2022/01/23 08:35:28;;;;;;;2.95;1.40;;;1.30;71.20;;;;;;4999120;28;20034;-70
2022/01/23 08:37:54;;;;;;;3.33;2.22;;;1.30;69.10;;;;;;5001838;28;20099;-72
2022/01/23 08:40:24;;;;;;;2.03;1.20;;;1.30;70.40;;;;;;4999018;28;20065;-70
2022/01/23 08:42:54;;;;;;;3.38;2.38;;;1.30;68.80;;;;;;5000682;28;20038;-70
2022/01/23 08:45:20;;;;;;;3.45;1.70;;;1.20;69.30;;;;;;4995918;28;20030;-68
2022/01/23 08:47:47;;;;;;;4.25;2.15;;;1.20;70.60;;;;;;4996320;28;20152;-68
2022/01/23 08:50:13;;;;;;;10.57;6.50;;;1.30;70.70;;;;;;4999964;28;20022;-69
2022/01/23 08:52:39;;;;;;;3.42;1.75;;;1.40;70.10;;;;;;5003935;28;20053;-69
2022/01/23 08:55:05;;;;;;;8.30;4.13;;;1.40;69.10;;;;;;5002304;28;20949;-69
2022/01/23 08:57:30;;;;;;;7.93;5.07;;;1.50;68.60;;;;;;5001276;28;20031;-69
2022/01/23 08:59:56;;;;;;;2.47;1.83;;;1.50;69.20;;;;;;4999415;28;20045;-69
2022/01/23 09:02:22;;;;;;;4.72;2.00;;;1.60;70.10;;;;;;5001541;28;20133;-69
2022/01/23 09:04:47;;;;;;;4.97;2.70;;;1.70;69.10;;;;;;4997986;28;21944;-70
2022/01/23 09:07:13;;;;;;;2.17;1.70;;;1.70;69.30;;;;;;4999406;28;20385;-69
2022/01/23 09:09:40;;;;;;;2.00;1.38;;;1.70;68.80;;;;;;5002034;28;20545;-69
2022/01/23 09:12:24;;;;;;;2.58;1.23;;;1.60;67.10;;;;;;4999013;28;20452;-69
2022/01/23 09:14:49;;;;;;;3.78;1.15;;;1.70;68.30;;;;;;5002981;28;20125;-68
2022/01/23 09:17:15;;;;;;;2.65;1.30;;;1.60;68.10;;;;;;4998851;28;20092;-69
2022/01/23 09:19:41;;;;;;;3.80;1.75;;;1.60;69.30;;;;;;5000921;28;20554;-69
2022/01/23 09:22:07;;;;;;;2.75;1.65;;;1.50;68.30;;;;;;4998040;28;20595;-69
2022/01/23 09:24:32;;;;;;;2.42;1.50;;;1.50;69.60;;;;;;5002447;28;20049;-68
2022/01/23 09:27:05;;;;;;;4.50;1.60;;;1.60;70.70;;;;;;5021050;28;20034;-70
2022/01/23 09:29:38;;;;;;;4.43;1.90;;;1.70;69.80;;;;;;5000507;28;20058;-69
2022/01/23 09:32:14;;;;;;;3.88;1.63;;;1.70;68.50;;;;;;4995910;28;20045;-69
2022/01/23 09:34:42;;;;;;;2.33;1.67;;;1.70;69.60;;;;;;5003961;28;20034;-71
2022/01/23 09:37:13;;;;;;;2.95;1.10;;;1.90;69.50;;;;;;4999946;28;20056;-70
2022/01/23 09:39:41;;;;;;;2.20;1.58;;;1.90;68.00;;;;;;4998134;28;20022;-73
2022/01/23 09:42:26;;;;;;;4.88;1.50;;;2.00;68.00;;;;;;5003159;28;20050;-72
2022/01/23 09:44:57;;;;;;;4.07;1.63;;;2.00;67.30;;;;;;5000118;28;20040;-70
2022/01/23 09:47:23;;;;;;;2.20;1.43;;;1.90;69.60;;;;;;4996992;28;20040;-69
2022/01/23 09:49:51;;;;;;;2.28;1.50;;;2.00;68.50;;;;;;5001143;28;20026;-70
2022/01/23 09:52:18;;;;;;;3.88;1.50;;;1.90;67.40;;;;;;5002615;28;20038;-70
2022/01/23 09:54:55;;;;;;;2.97;1.80;;;1.90;67.80;;;;;;5003340;28;20747;-69
2022/01/23 09:57:24;;;;;;;4.13;1.88;;;1.90;67.90;;;;;;5005601;28;20064;-69
2022/01/23 09:59:54;;;;;;;3.15;1.65;;;2.00;67.30;;;;;;5003496;28;20026;-71
2022/01/23 10:02:23;;;;;;;2.92;1.60;;;1.90;67.40;;;;;;5002364;28;20034;-69
2022/01/23 10:04:50;;;;;;;3.25;1.30;;;2.00;69.50;;;;;;5001333;28;20076;-70
2022/01/23 10:07:17;;;;;;;4.88;1.48;;;2.10;68.50;;;;;;5003723;28;20029;-70
2022/01/23 10:09:43;;;;;;;6.05;3.45;;;2.30;67.00;;;;;;4999993;28;20137;-69
2022/01/23 10:12:11;;;;;;;3.22;1.75;;;2.40;67.40;;;;;;5001831;28;20104;-72
2022/01/23 10:14:40;;;;;;;3.90;1.60;;;2.50;67.10;;;;;;5002593;28;20040;-69
2022/01/23 10:17:07;;;;;;;3.35;1.65;;;2.60;66.10;;;;;;4999411;28;20033;-70
2022/01/23 10:19:33;;;;;;;4.90;2.33;;;2.60;67.80;;;;;;5000954;28;20109;-69
2022/01/23 10:22:00;;;;;;;4.30;1.70;;;2.70;66.40;;;;;;4994486;28;20088;-69
2022/01/23 10:24:28;;;;;;;3.65;1.67;;;2.70;65.70;;;;;;5002161;28;20069;-69
2022/01/23 10:26:57;;;;;;;4.20;1.67;;;2.60;64.10;;;;;;4998523;28;20116;-71
2022/01/23 10:29:25;;;;;;;6.35;1.77;;;2.40;66.80;;;;;;5001427;28;20056;-71
2022/01/23 10:32:06;;;;;;;5.30;1.92;;;2.30;66.90;;;;;;4999873;28;20026;-70
2022/01/23 10:34:56;;;;;;;2.22;1.25;;;2.30;68.90;;;;;;4999082;28;20056;-71
2022/01/23 10:37:37;;;;;;;4.18;1.90;;;2.40;67.90;;;;;;4999048;28;20836;-69
2022/01/23 10:40:27;;;;;;;5.53;2.88;;;2.40;67.70;;;;;;5001895;28;20030;-70
2022/01/23 10:48:40;;;;;;;7.55;5.43;;;2.50;66.50;;;;;;4999177;28;20072;-72
2022/01/23 10:51:36;;;;;;;5.03;2.53;;;2.50;67.60;;;;;;4996668;28;20109;-70
2022/01/23 10:54:01;;;;;;;3.95;2.05;;;2.50;67.80;;;;;;4991503;28;20058;-69
2022/01/23 10:56:29;;;;;;;4.88;2.35;;;2.60;68.00;;;;;;4996742;28;20021;-69
2022/01/23 10:59:05;;;;;;;3.35;2.13;;;2.70;66.80;;;;;;5001702;28;23877;-71
2022/01/23 11:01:31;;;;;;;3.38;1.70;;;2.70;65.90;;;;;;5004456;28;20405;-70
2022/01/23 11:04:06;;;;;;;4.63;2.08;;;2.70;66.40;;;;;;5001215;28;20037;-71
2022/01/23 11:06:32;;;;;;;4.43;1.95;;;2.60;66.50;;;;;;5000206;28;20025;-71
2022/01/23 11:09:09;;;;;;;2.85;1.60;;;2.60;66.60;;;;;;5000638;28;20037;-72
2022/01/23 11:11:47;;;;;;;5.85;1.92;;;2.50;65.60;;;;;;5000303;28;20096;-70
2022/01/23 11:19:49;;;;;;;5.15;1.60;;;2.60;67.90;;;;;;5001054;28;20065;-70
2022/01/23 11:22:17;;;;;;;3.22;1.98;;;2.60;67.20;;;;;;5000228;28;20038;-68
2022/01/23 11:24:47;;;;;;;5.45;2.17;;;2.70;67.10;;;;;;5001487;28;20813;-68
2022/01/23 11:27:19;;;;;;;3.70;1.98;;;2.70;67.20;;;;;;4999739;28;20580;-74
2022/01/23 11:29:57;;;;;;;3.05;1.88;;;2.80;66.30;;;;;;4998085;28;20036;-73
2022/01/23 11:32:25;;;;;;;2.92;2.10;;;2.90;66.50;;;;;;4998167;28;20520;-71
2022/01/23 11:34:58;;;;;;;4.47;2.13;;;3.00;70.10;;;;;;5014096;28;21587;-69
2022/01/23 11:37:24;;;;;;;3.10;1.90;;;3.00;70.90;;;;;;4998393;28;20041;-69
2022/01/23 11:39:59;;;;;;;3.05;1.85;;;3.00;73.10;;;;;;4999078;28;20094;-70
2022/01/23 11:56:27;;;;;;;3.47;1.98;;;3.10;69.50;;;;;;4996918;28;20385;-68
2022/01/23 11:59:20;;;;;;;2.72;1.75;;;3.00;71.00;;;;;;5001387;28;20082;-69
2022/01/23 12:02:08;;;;;;;3.35;2.10;;;3.00;68.90;;;;;;5001377;28;20030;-69
2022/01/23 12:04:34;;;;;;;3.28;2.10;;;3.10;70.20;;;;;;4998453;28;20034;-68
2022/01/23 12:07:12;;;;;;;3.30;1.90;;;3.10;69.70;;;;;;4999860;28;20057;-69
2022/01/23 12:09:42;;;;;;;4.40;2.25;;;3.10;69.80;;;;;;4999697;28;20471;-68
2022/01/23 12:12:29;;;;;;;4.38;2.10;;;3.00;69.90;;;;;;5001287;28;20033;-69
2022/01/23 12:18:22;;;;;;;3.22;2.17;;;3.10;70.40;;;;;;4999936;28;20041;-69
2022/01/23 12:20:51;;;;;;;4.45;3.05;;;3.20;69.60;;;;;;5001388;28;20030;-68
2022/01/23 12:23:17;;;;;;;3.70;2.17;;;3.10;67.60;;;;;;5001350;28;20026;-69
2022/01/23 12:25:45;;;;;;;3.17;2.05;;;3.10;68.10;;;;;;5001056;28;20026;-69
2022/01/23 12:28:21;;;;;;;4.03;2.20;;;3.10;69.50;;;;;;4996731;28;20053;-69
2022/01/23 12:30:49;;;;;;;4.47;2.28;;;3.00;69.20;;;;;;4999667;28;20113;-69
2022/01/23 12:33:20;;;;;;;4.25;2.30;;;3.00;70.20;;;;;;5002749;28;20034;-67
2022/01/23 12:35:59;;;;;;;4.10;2.40;;;3.10;71.80;;;;;;4998802;28;20054;-69
2022/01/23 12:38:31;;;;;;;5.15;2.35;;;3.20;70.40;;;;;;4998792;28;20559;-70
2022/01/23 12:41:14;;;;;;;4.95;2.70;;;3.20;70.70;;;;;;4998329;28;20039;-69
2022/01/23 12:43:40;;;;;;;4.22;2.80;;;3.20;70.00;;;;;;5000342;28;20038;-69
2022/01/23 12:46:08;;;;;;;3.97;2.50;;;3.10;69.10;;;;;;5000890;28;20045;-66
2022/01/23 12:48:36;;;;;;;4.22;2.60;;;3.00;70.40;;;;;;4998231;28;20504;-68
2022/01/23 12:51:17;;;;;;;4.75;2.42;;;3.00;70.30;;;;;;5002070;28;20649;-68
2022/01/23 12:53:46;;;;;;;3.17;2.08;;;3.00;72.40;;;;;;5000147;28;20420;-68
2022/01/23 12:56:14;;;;;;;5.32;1.95;;;3.00;69.20;;;;;;5000662;28;20062;-68
2022/01/23 12:58:42;;;;;;;4.75;2.50;;;3.00;69.30;;;;;;4998228;28;20029;-68
2022/01/23 13:01:25;;;;;;;3.13;2.17;;;3.10;70.50;;;;;;4998850;28;20693;-68
2022/01/23 13:03:51;;;;;;;4.07;2.45;;;3.10;69.30;;;;;;4997152;28;20096;-68
2022/01/23 13:06:17;;;;;;;5.13;2.08;;;3.10;69.20;;;;;;4999442;28;20057;-70
2022/01/23 13:08:52;;;;;;;4.10;2.70;;;3.20;69.60;;;;;;4996426;28;20222;-68
2022/01/23 13:11:50;;;;;;;5.45;2.42;;;3.20;70.00;;;;;;4997834;28;20448;-68
2022/01/23 13:14:07;;;;;;;3.42;2.00;;;3.20;70.40;;;;;;4996168;28;20045;-70
2022/01/23 13:17:08;;;;;;;6.53;2.13;;;3.30;69.90;;;;;;5000936;28;20030;-69
2022/01/23 13:19:45;;;;;;;4.97;2.10;;;3.30;70.80;;;;;;4997905;28;20049;-69
2022/01/23 13:30:15;;;;;;;3.78;2.45;;;3.50;75.10;;;;;;5000178;28;20098;-70
2022/01/23 13:32:46;;;;;;;2.60;2.10;;;3.40;75.30;;;;;;4996530;28;20036;-69
2022/01/23 13:35:16;;;;;;;3.85;2.35;;;3.50;72.80;;;;;;4994399;28;20042;-69
2022/01/23 13:37:47;;;;;;;4.03;2.20;;;3.60;73.30;;;;;;4994798;28;20120;-69
2022/01/23 13:40:29;;;;;;;5.80;2.20;;;3.70;73.70;;;;;;4994237;28;20022;-69
2022/01/23 13:51:56;;;;;;;4.63;1.88;;;4.00;63.50;;;;;;5000586;28;20044;-69
2022/01/23 14:00:14;;;;;;;4.22;2.25;;;5.90;94.00;;;;;;4998093;28;20041;-69
2022/01/23 14:02:49;;;;;;;5.03;2.00;;;6.40;58.30;;;;;;4999750;28;20040;-69
2022/01/23 14:05:17;;;;;;;3.10;2.00;;;7.10;56.00;;;;;;5000770;28;20034;-69
2022/01/23 14:07:49;;;;;;;3.03;1.90;;;7.60;56.80;;;;;;5002863;28;20374;-69
2022/01/23 14:10:36;;;;;;;4.20;2.15;;;8.20;54.60;;;;;;5003052;28;20025;-70
2022/01/23 14:13:15;;;;;;;2.60;2.08;;;9.40;50.50;;;;;;4999852;28;20033;-70
2022/01/23 14:15:53;;;;;;;3.83;1.92;;;9.80;49.80;;;;;;5003752;28;20137;-70
2022/01/23 14:18:28;;;;;;;3.28;2.00;;;9.80;47.90;;;;;;5003604;28;20617;-70
2022/01/23 14:21:00;;;;;;;4.38;2.17;;;9.40;47.90;;;;;;5003120;28;20033;-70
2022/01/23 14:23:27;;;;;;;2.65;1.70;;;9.00;48.00;;;;;;5005242;28;20703;-69
2022/01/23 14:26:00;;;;;;;3.90;2.05;;;8.50;49.80;;;;;;4995904;28;20404;-70
2022/01/23 14:28:35;;;;;;;2.58;1.73;;;8.20;50.40;;;;;;5003156;28;20045;-69
2022/01/23 14:31:12;;;;;;;5.25;2.13;;;7.90;51.80;;;;;;4997605;28;20477;-70
2022/01/23 14:33:38;;;;;;;3.63;2.05;;;7.40;51.80;;;;;;5000134;28;20034;-69
2022/01/23 14:36:38;;;;;;;4.13;2.25;;;7.20;52.30;;;;;;4994905;28;20383;-70
2022/01/23 14:39:10;;;;;;;3.10;1.90;;;6.90;53.90;;;;;;4969972;28;20566;-69
2022/01/23 14:41:39;;;;;;;1.90;1.58;;;6.80;54.00;;;;;;5000416;28;20049;-70
2022/01/23 14:44:20;;;;;;;5.50;1.67;;;6.50;53.90;;;;;;4999795;28;20077;-70
2022/01/23 14:46:48;;;;;;;2.70;1.50;;;6.20;56.20;;;;;;5000062;28;20091;-69
2022/01/23 14:49:21;;;;;;;2.70;1.38;;;5.90;55.20;;;;;;5002362;28;20113;-69
2022/01/23 14:51:47;;;;;;;2.40;1.35;;;5.60;58.30;;;;;;5002014;28;20037;-71
2022/01/23 14:54:13;;;;;;;2.60;1.40;;;5.40;57.50;;;;;;4998176;28;20061;-68
2022/01/23 14:56:40;;;;;;;2.80;1.42;;;5.30;57.40;;;;;;4999385;28;20030;-70
2022/01/23 14:59:10;;;;;;;2.40;1.40;;;5.10;58.40;;;;;;4998510;28;20113;-70
2022/01/23 15:01:36;;;;;;;3.83;1.73;;;5.10;58.70;;;;;;5001651;28;20066;-69
2022/01/23 15:04:07;;;;;;;3.08;1.40;;;5.20;58.60;;;;;;5008705;28;20061;-68
2022/01/23 15:06:33;;;;;;;2.33;1.40;;;5.10;58.40;;;;;;5002810;28;20037;-67
2022/01/23 15:09:07;;;;;;;1.70;1.23;;;5.00;59.20;;;;;;4999650;28;20030;-67
2022/01/23 15:11:34;;;;;;;2.80;1.30;;;5.00;61.30;;;;;;5000962;28;20472;-68
2022/01/23 15:14:00;;;;;;;2.90;1.58;;;4.80;64.30;;;;;;5002164;28;20108;-67
2022/01/23 15:16:25;;;;;;;3.08;1.48;;;4.40;60.00;;;;;;5000410;28;20026;-67
2022/01/23 15:18:51;;;;;;;1.95;1.13;;;4.10;61.40;;;;;;4999839;28;20036;-67
2022/01/23 15:21:17;;;;;;;2.72;1.30;;;3.90;63.60;;;;;;5002566;28;20037;-68
2022/01/23 15:23:42;;;;;;;1.80;1.23;;;3.70;64.40;;;;;;4997450;28;20045;-69
2022/01/23 15:26:09;;;;;;;3.10;1.20;;;3.50;65.20;;;;;;4997718;28;20481;-69
2022/01/23 15:28:34;;;;;;;2.75;1.45;;;3.30;65.30;;;;;;4998959;28;20041;-68
2022/01/23 15:31:00;;;;;;;4.00;1.13;;;3.40;66.20;;;;;;4998125;28;20034;-69
2022/01/23 15:33:26;;;;;;;2.58;1.45;;;3.20;66.50;;;;;;4998522;28;20046;-71
2022/01/23 15:35:52;;;;;;;2.55;1.83;;;3.10;67.40;;;;;;4995451;28;20638;-70
2022/01/23 15:38:21;;;;;;;2.88;1.40;;;2.90;68.20;;;;;;4999825;28;20026;-69
2022/01/23 15:40:48;;;;;;;2.40;1.42;;;2.90;68.70;;;;;;4998880;28;20566;-69
2022/01/23 15:43:14;;;;;;;2.35;1.42;;;2.90;69.50;;;;;;5001759;28;20731;-70
2022/01/23 15:45:42;;;;;;;3.22;1.50;;;2.80;69.10;;;;;;5000068;28;20133;-69
2022/01/23 15:48:08;;;;;;;4.50;1.50;;;2.70;69.70;;;;;;4997919;28;20036;-69
2022/01/23 15:50:34;;;;;;;6.93;3.45;;;2.70;70.00;;;;;;4995476;28;20030;-69
2022/01/23 15:52:59;;;;;;;6.78;3.08;;;2.60;70.10;;;;;;4996588;28;20493;-68
2022/01/23 15:55:28;;;;;;;11.90;6.85;;;2.60;70.50;;;;;;5003604;28;20054;-70
2022/01/23 15:57:57;;;;;;;5.07;2.22;;;2.50;70.80;;;;;;5000131;28;20036;-68
2022/01/23 16:00:24;;;;;;;5.25;2.97;;;2.50;71.30;;;;;;4998496;28;20570;-70
2022/01/23 16:02:49;;;;;;;18.30;9.80;;;2.50;71.80;;;;;;5001012;28;20048;-70
2022/01/23 16:05:18;;;;;;;8.93;4.80;;;2.50;71.30;;;;;;5002177;28;20576;-70
2022/01/23 16:07:44;;;;;;;6.47;3.78;;;2.50;71.50;;;;;;4997110;28;20061;-69
2022/01/23 16:10:11;;;;;;;5.03;3.28;;;2.40;71.30;;;;;;5000993;28;20040;-69
2022/01/23 16:12:38;;;;;;;4.40;3.25;;;2.30;72.00;;;;;;5000787;28;20036;-69
2022/01/23 16:15:12;;;;;;;1.75;1.40;;;2.30;72.20;;;;;;4998505;28;20034;-68